Time;durP1;ratioP1;P1;durP2;ratioP2;P2;SDS_P1;SDS_P2;PMS_P1;PMS_P2;Temp;Humidity;BMP_temperature;BMP_pressure;BME280_temperature;BME280_humidity;BME280_pressure;Samples;Min_cycle;Max_cycle;Signal;HPM_P1;HPM_P2
2023/06/09 04:04:35;;;;;;;4.80;4.03;;;13.00;99.90;;;;;;5948498;22;20536;-65
2023/06/09 04:07:01;;;;;;;7.60;4.90;;;13.00;99.90;;;;;;4995673;28;20844;-65
2023/06/09 04:09:27;;;;;;;3.60;3.30;;;13.10;99.90;;;;;;5013829;28;20207;-64
2023/06/09 04:11:53;;;;;;;5.03;4.50;;;13.20;99.90;;;;;;5013673;28;20415;-65
2023/06/09 04:14:18;;;;;;;6.20;4.23;;;13.20;99.90;;;;;;5013215;28;20788;-66
2023/06/09 04:16:45;;;;;;;4.93;4.43;;;13.40;99.90;;;;;;5013723;28;20207;-65
2023/06/09 04:19:10;;;;;;;4.17;3.80;;;13.50;99.90;;;;;;5013407;28;20638;-65
2023/06/09 04:21:37;;;;;;;6.10;4.73;;;13.70;99.90;;;;;;5013681;28;20441;-66
2023/06/09 04:24:03;;;;;;;4.93;4.30;;;13.80;99.90;;;;;;5013041;28;20619;-65
2023/06/09 04:26:29;;;;;;;6.60;4.60;;;14.00;99.90;;;;;;5013550;28;20481;-67
2023/06/09 04:28:55;;;;;;;14.60;4.80;;;14.20;99.90;;;;;;4996030;28;20421;-66
2023/06/09 04:31:23;;;;;;;6.60;4.63;;;14.40;99.90;;;;;;5013252;28;20392;-66
2023/06/09 04:33:51;;;;;;;4.93;4.23;;;14.60;99.90;;;;;;5012846;28;20289;-67
2023/06/09 04:36:17;;;;;;;5.47;4.90;;;14.80;99.90;;;;;;5012952;28;20751;-65
2023/06/09 04:38:45;;;;;;;7.27;5.83;;;15.10;99.90;;;;;;5013401;28;20417;-66
2023/06/09 04:41:11;;;;;;;5.17;4.67;;;15.40;99.90;;;;;;5013306;28;20853;-66
2023/06/09 04:43:39;;;;;;;6.37;5.40;;;15.60;99.90;;;;;;5013173;28;20418;-66
2023/06/09 04:46:08;;;;;;;4.77;4.37;;;15.70;99.90;;;;;;5017159;28;20500;-66
2023/06/09 04:48:34;;;;;;;5.33;4.80;;;15.80;99.90;;;;;;5017034;28;20410;-67
2023/06/09 04:51:03;;;;;;;4.90;3.83;;;16.00;99.90;;;;;;5016908;28;20927;-66
2023/06/09 04:53:30;;;;;;;4.40;4.00;;;16.00;99.90;;;;;;5016718;28;20433;-68
2023/06/09 04:55:56;;;;;;;3.43;3.13;;;16.20;99.90;;;;;;5016896;28;20434;-67
2023/06/09 04:58:23;;;;;;;5.50;5.00;;;16.20;99.90;;;;;;5016905;28;20414;-66
2023/06/09 05:00:49;;;;;;;4.63;4.17;;;16.40;99.90;;;;;;5016661;28;20453;-66
2023/06/09 05:03:17;;;;;;;4.53;3.07;;;16.50;99.90;;;;;;5016429;28;20764;-65
2023/06/09 05:05:43;;;;;;;4.00;3.60;;;16.50;99.90;;;;;;5016488;28;20889;-66
2023/06/09 05:08:09;;;;;;;5.17;4.20;;;16.50;99.90;;;;;;5016704;28;20407;-67
2023/06/09 05:10:35;;;;;;;4.80;4.40;;;16.60;99.90;;;;;;5016702;28;20406;-67
2023/06/09 05:13:01;;;;;;;4.60;4.30;;;16.50;99.90;;;;;;5016543;28;21030;-65
2023/06/09 05:15:27;;;;;;;4.93;4.40;;;16.50;99.90;;;;;;5016324;28;20521;-66
2023/06/09 05:17:53;;;;;;;4.53;3.77;;;16.60;99.90;;;;;;5016645;28;20511;-67
2023/06/09 05:20:19;;;;;;;7.10;4.57;;;16.50;99.90;;;;;;5016512;28;20446;-65
2023/06/09 05:22:45;;;;;;;4.17;3.80;;;16.50;99.90;;;;;;5016448;28;20381;-66
2023/06/09 05:25:14;;;;;;;4.40;4.00;;;16.50;99.90;;;;;;5016128;28;20445;-67
2023/06/09 05:27:39;;;;;;;5.23;3.90;;;16.60;99.90;;;;;;5016355;28;20472;-66
2023/06/09 05:30:06;;;;;;;5.00;4.60;;;16.70;99.90;;;;;;5016358;28;20833;-66
2023/06/09 05:32:32;;;;;;;9.50;4.50;;;16.90;99.90;;;;;;5016286;28;20188;-67
2023/06/09 05:34:58;;;;;;;4.63;4.33;;;17.10;99.90;;;;;;5015848;28;20421;-66
2023/06/09 05:37:25;;;;;;;4.00;3.70;;;17.50;99.90;;;;;;5016240;28;20178;-66
2023/06/09 05:39:51;;;;;;;3.90;3.60;;;17.90;99.90;;;;;;5016039;28;20328;-67
2023/06/09 05:42:16;;;;;;;4.47;4.03;;;18.40;99.90;;;;;;5015910;28;20891;-66
2023/06/09 05:44:42;;;;;;;4.50;4.10;;;18.60;99.90;;;;;;5015561;28;20641;-67
2023/06/09 05:47:07;;;;;;;5.57;3.90;;;18.60;99.90;;;;;;5015984;28;20171;-66
2023/06/09 05:49:34;;;;;;;4.43;4.03;;;18.50;99.90;;;;;;5016102;28;20214;-68
2023/06/09 05:51:59;;;;;;;4.00;3.70;;;18.60;99.90;;;;;;5015628;28;20183;-67
2023/06/09 05:54:26;;;;;;;5.67;3.80;;;18.60;99.90;;;;;;5014970;28;20491;-66
2023/06/09 05:56:53;;;;;;;4.37;3.97;;;18.60;99.90;;;;;;5015731;28;20175;-66
2023/06/09 05:59:20;;;;;;;4.00;3.70;;;18.60;99.90;;;;;;5015812;28;20449;-67
2023/06/09 06:01:46;;;;;;;4.17;3.87;;;18.60;99.90;;;;;;5015739;28;20947;-66
2023/06/09 06:04:12;;;;;;;6.27;3.70;;;18.70;99.90;;;;;;5015311;28;20434;-67
2023/06/09 06:06:38;;;;;;;6.73;4.37;;;18.70;99.90;;;;;;5015340;28;20921;-66
2023/06/09 06:09:04;;;;;;;4.70;3.87;;;18.70;99.90;;;;;;5015310;28;20248;-66
2023/06/09 06:11:30;;;;;;;5.10;4.27;;;18.80;99.90;;;;;;5015577;28;20588;-66
2023/06/09 06:13:56;;;;;;;4.27;3.93;;;18.90;99.90;;;;;;5015034;28;20405;-65
2023/06/09 06:16:22;;;;;;;4.13;3.23;;;19.00;99.90;;;;;;5015183;28;20422;-66
2023/06/09 06:18:47;;;;;;;4.70;4.30;;;19.20;99.90;;;;;;5014885;28;20206;-65
2023/06/09 06:21:13;;;;;;;3.37;3.17;;;19.30;99.90;;;;;;5015092;28;20592;-65
2023/06/09 06:23:39;;;;;;;3.40;3.20;;;19.40;99.90;;;;;;5014937;28;20406;-65
2023/06/09 06:26:05;;;;;;;3.10;2.80;;;19.60;99.90;;;;;;5014768;28;20281;-65
2023/06/09 06:28:31;;;;;;;3.73;3.40;;;19.60;99.90;;;;;;5015413;28;20493;-65
2023/06/09 06:30:57;;;;;;;3.83;3.53;;;19.80;99.90;;;;;;4997345;28;20426;-65
2023/06/09 06:33:23;;;;;;;3.77;3.37;;;19.90;99.90;;;;;;5015004;28;20178;-67
2023/06/09 06:35:49;;;;;;;7.30;3.63;;;20.00;99.90;;;;;;5014992;28;20275;-65
2023/06/09 06:38:15;;;;;;;3.43;3.13;;;20.10;99.90;;;;;;5014798;28;20422;-67
2023/06/09 06:40:42;;;;;;;2.80;2.60;;;20.10;99.90;;;;;;5014814;28;20464;-65
2023/06/09 06:43:08;;;;;;;3.17;2.97;;;20.20;99.90;;;;;;5014700;28;20182;-68
2023/06/09 06:45:33;;;;;;;3.43;3.13;;;20.20;99.90;;;;;;5014804;28;20442;-67
2023/06/09 06:48:00;;;;;;;2.93;2.70;;;20.20;99.90;;;;;;5014780;28;20171;-67
2023/06/09 06:50:27;;;;;;;3.10;2.87;;;20.30;99.90;;;;;;5014703;28;20532;-65
2023/06/09 06:52:53;;;;;;;3.63;2.70;;;20.40;99.90;;;;;;4997391;28;20509;-66
2023/06/09 06:55:18;;;;;;;2.67;2.57;;;20.60;99.90;;;;;;5014360;28;20879;-67
2023/06/09 06:57:44;;;;;;;2.57;2.37;;;20.60;99.90;;;;;;5014471;28;20668;-64
2023/06/09 07:00:14;;;;;;;3.37;2.60;;;20.70;99.90;;;;;;5014569;28;20679;-65
2023/06/09 07:02:44;;;;;;;3.70;2.40;;;20.90;99.90;;;;;;5014491;28;20290;-66
2023/06/09 07:05:10;;;;;;;3.23;2.80;;;21.00;99.90;;;;;;5014080;28;20421;-65
2023/06/09 07:07:36;;;;;;;3.10;2.90;;;21.20;99.90;;;;;;5013574;28;20473;-65
2023/06/09 07:10:02;;;;;;;2.17;2.03;;;21.40;99.90;;;;;;5014414;28;20608;-70
2023/06/09 07:12:28;;;;;;;2.47;2.27;;;21.50;99.90;;;;;;5014236;28;20369;-67
2023/06/09 07:14:55;;;;;;;2.20;2.00;;;21.60;99.90;;;;;;5013973;28;20404;-67
2023/06/09 07:17:21;;;;;;;1.93;1.83;;;21.70;99.90;;;;;;5014522;28;20170;-65
2023/06/09 07:19:46;;;;;;;2.77;2.60;;;21.90;99.90;;;;;;5014267;28;20527;-67
2023/06/09 07:22:12;;;;;;;3.23;2.77;;;22.10;99.90;;;;;;4996576;28;20182;-67
2023/06/09 07:24:37;;;;;;;2.73;2.50;;;22.30;99.90;;;;;;5013774;28;20221;-66
2023/06/09 07:27:03;;;;;;;2.60;2.40;;;22.70;99.90;;;;;;5014077;28;20283;-65
2023/06/09 07:29:29;;;;;;;2.20;2.10;;;23.30;99.90;;;;;;5013974;28;20641;-66
2023/06/09 07:31:54;;;;;;;2.63;2.43;;;24.00;99.90;;;;;;5013996;28;20388;-69
2023/06/09 07:34:20;;;;;;;2.53;2.33;;;24.60;98.90;;;;;;5013586;28;20208;-66
2023/06/09 07:36:50;;;;;;;2.67;2.47;;;25.30;96.20;;;;;;5013933;28;20193;-68
2023/06/09 07:39:19;;;;;;;2.97;2.67;;;26.10;94.70;;;;;;5013749;28;20568;-66
2023/06/09 07:41:45;;;;;;;2.40;2.30;;;27.20;94.10;;;;;;5013782;28;20391;-67
2023/06/09 07:44:10;;;;;;;2.70;2.50;;;28.30;91.30;;;;;;5013380;28;20412;-67
2023/06/09 07:46:36;;;;;;;2.77;2.60;;;29.40;86.00;;;;;;5014091;28;20237;-68
2023/06/09 07:49:02;;;;;;;2.90;2.70;;;30.60;86.10;;;;;;5013962;28;20257;-68
2023/06/09 07:51:29;;;;;;;3.00;2.80;;;31.50;78.70;;;;;;5013591;28;20653;-67
2023/06/09 07:53:54;;;;;;;2.23;2.10;;;32.30;75.70;;;;;;5013374;28;20454;-67
2023/06/09 07:56:20;;;;;;;2.50;2.33;;;32.60;73.50;;;;;;5013694;28;20619;-65
2023/06/09 07:58:46;;;;;;;2.60;2.40;;;32.50;71.90;;;;;;5013712;28;20257;-66
2023/06/09 08:01:12;;;;;;;2.67;2.47;;;32.60;71.70;;;;;;4996001;28;20207;-67
2023/06/09 08:03:37;;;;;;;2.77;2.57;;;32.80;70.30;;;;;;5013456;28;20417;-67
2023/06/09 08:06:04;;;;;;;4.23;2.87;;;32.50;67.70;;;;;;5013812;28;20211;-67
2023/06/09 08:08:31;;;;;;;2.93;2.73;;;32.40;70.30;;;;;;5013799;28;20190;-66
2023/06/09 08:11:00;;;;;;;2.57;2.37;;;32.60;68.20;;;;;;5013581;28;20421;-66
2023/06/09 08:13:27;;;;;;;2.87;2.70;;;33.10;66.90;;;;;;5013403;28;20429;-66
2023/06/09 08:15:53;;;;;;;2.30;2.20;;;33.60;66.60;;;;;;5013581;28;20819;-65
2023/06/09 08:18:19;;;;;;;3.00;2.80;;;33.80;66.30;;;;;;5014888;28;20406;-66
2023/06/09 08:20:45;;;;;;;2.93;2.73;;;33.80;65.70;;;;;;4999888;28;20611;-68
2023/06/09 08:23:10;;;;;;;2.13;2.03;;;34.10;64.80;;;;;;5017153;28;20274;-67
2023/06/09 08:25:37;;;;;;;2.63;2.50;;;34.20;63.10;;;;;;5017926;28;20230;-66
2023/06/09 08:28:02;;;;;;;2.47;2.37;;;34.20;62.90;;;;;;5017561;28;20182;-66
2023/06/09 08:30:28;;;;;;;3.13;2.93;;;34.10;62.80;;;;;;5017515;28;20409;-66
2023/06/09 08:32:53;;;;;;;2.80;2.60;;;34.30;65.10;;;;;;5017391;28;20516;-67
2023/06/09 08:35:21;;;;;;;3.00;2.80;;;34.50;62.10;;;;;;5016917;28;20226;-66
2023/06/09 08:37:47;;;;;;;2.50;2.30;;;34.40;62.20;;;;;;4999571;28;20183;-65
2023/06/09 08:40:13;;;;;;;3.23;3.03;;;34.60;63.80;;;;;;5016968;28;20488;-66
2023/06/09 08:42:39;;;;;;;3.00;2.80;;;34.80;63.30;;;;;;5017274;28;20414;-66
2023/06/09 08:45:06;;;;;;;3.80;3.50;;;34.80;61.60;;;;;;5016732;28;20198;-66
2023/06/09 08:47:33;;;;;;;2.90;2.80;;;34.90;59.70;;;;;;5017101;28;20880;-66
2023/06/09 08:50:02;;;;;;;2.80;2.60;;;34.80;61.60;;;;;;5017222;28;20747;-67
2023/06/09 08:52:28;;;;;;;2.70;2.60;;;34.90;60.90;;;;;;5016875;28;20413;-67
2023/06/09 08:54:56;;;;;;;3.03;2.83;;;35.10;59.50;;;;;;5016534;28;20401;-67
2023/06/09 08:57:23;;;;;;;2.67;2.47;;;35.30;59.00;;;;;;5016951;28;20414;-67
2023/06/09 08:59:50;;;;;;;3.10;2.90;;;35.30;58.50;;;;;;5016788;28;20461;-66
2023/06/09 09:02:16;;;;;;;2.83;2.63;;;35.20;58.90;;;;;;5016848;28;20426;-66
2023/06/09 09:04:42;;;;;;;2.33;2.23;;;35.10;58.40;;;;;;5016381;28;20978;-66
2023/06/09 09:07:11;;;;;;;2.53;2.33;;;35.10;58.50;;;;;;5016718;28;20536;-66
2023/06/09 09:09:37;;;;;;;3.17;2.97;;;34.90;58.10;;;;;;5016738;28;20922;-66
2023/06/09 09:12:03;;;;;;;2.53;2.43;;;34.80;58.10;;;;;;5016664;28;20886;-66
2023/06/09 09:14:29;;;;;;;2.33;2.20;;;34.30;57.60;;;;;;5015982;28;20950;-66
2023/06/09 09:16:55;;;;;;;2.93;2.60;;;33.80;59.00;;;;;;5016435;28;20414;-66
2023/06/09 09:19:27;;;;;;;2.80;2.60;;;33.70;59.50;;;;;;5017067;28;20187;-66
2023/06/09 09:22:01;;;;;;;2.60;2.40;;;33.70;60.50;;;;;;4999323;28;20198;-66
2023/06/09 09:24:31;;;;;;;3.20;3.00;;;33.70;60.00;;;;;;5016222;28;20404;-66
2023/06/09 09:26:57;;;;;;;2.17;2.07;;;33.70;59.50;;;;;;5016346;28;20389;-66
2023/06/09 09:29:26;;;;;;;3.03;2.83;;;33.80;58.70;;;;;;5015574;28;20417;-66
2023/06/09 09:32:01;;;;;;;2.70;2.50;;;33.70;59.30;;;;;;5016245;28;20261;-66
2023/06/09 09:34:31;;;;;;;4.87;2.60;;;33.80;59.90;;;;;;5016003;28;20408;-66
2023/06/09 09:36:57;;;;;;;2.70;2.50;;;34.00;59.60;;;;;;5016323;28;20422;-66
2023/06/09 09:39:24;;;;;;;2.43;2.30;;;34.20;58.50;;;;;;5016180;28;20507;-65
2023/06/09 09:42:03;;;;;;;2.57;2.47;;;34.40;58.00;;;;;;5015954;28;20381;-66
2023/06/09 09:44:42;;;;;;;3.00;2.80;;;34.70;58.10;;;;;;5015803;28;20407;-66
2023/06/09 09:47:12;;;;;;;2.60;2.40;;;34.70;58.10;;;;;;5016032;28;20380;-66
2023/06/09 09:49:52;;;;;;;2.50;2.40;;;34.80;57.90;;;;;;5016031;28;20835;-66
2023/06/09 09:52:29;;;;;;;2.97;2.77;;;34.90;58.00;;;;;;5015944;28;20475;-66
2023/06/09 09:54:58;;;;;;;3.40;3.20;;;34.90;57.70;;;;;;5015564;28;20430;-66
2023/06/09 09:57:29;;;;;;;2.70;2.60;;;34.90;57.30;;;;;;5015883;28;20410;-66
2023/06/09 09:59:56;;;;;;;2.70;2.60;;;34.90;57.10;;;;;;5015878;28;20429;-66
2023/06/09 10:02:24;;;;;;;2.90;2.70;;;34.90;57.30;;;;;;5015611;28;20414;-66
2023/06/09 10:04:50;;;;;;;3.07;2.87;;;34.70;57.30;;;;;;5015287;28;20513;-66
2023/06/09 10:07:21;;;;;;;3.13;2.83;;;34.80;56.60;;;;;;5015467;28;20508;-67
2023/06/09 10:09:50;;;;;;;2.73;2.53;;;35.10;56.80;;;;;;5015762;28;20381;-66
2023/06/09 10:12:18;;;;;;;2.50;2.30;;;35.30;55.40;;;;;;5015675;28;20422;-66
2023/06/09 10:14:44;;;;;;;2.40;2.20;;;35.10;56.00;;;;;;5015018;28;20902;-65
2023/06/09 10:17:11;;;;;;;2.93;2.73;;;35.20;55.90;;;;;;5015491;28;20492;-65
2023/06/09 10:19:37;;;;;;;2.70;2.50;;;34.80;55.60;;;;;;5015409;28;20462;-65
2023/06/09 10:22:04;;;;;;;2.37;2.27;;;34.80;56.10;;;;;;5015244;28;20928;-66
2023/06/09 10:24:33;;;;;;;2.17;2.07;;;35.00;55.40;;;;;;5014879;28;20421;-65
2023/06/09 10:26:59;;;;;;;2.47;2.33;;;34.60;56.20;;;;;;5015322;28;20497;-67
2023/06/09 10:29:27;;;;;;;2.13;2.03;;;34.30;55.40;;;;;;5015213;28;20764;-66
2023/06/09 10:31:54;;;;;;;2.10;2.00;;;34.00;55.70;;;;;;5015202;28;20388;-67
2023/06/09 10:34:21;;;;;;;2.80;2.60;;;33.90;56.00;;;;;;5014795;28;20630;-66
2023/06/09 10:36:51;;;;;;;2.43;2.30;;;33.70;56.00;;;;;;5015228;28;20837;-66
2023/06/09 10:39:19;;;;;;;2.00;1.90;;;33.80;56.40;;;;;;5014906;28;20419;-66
2023/06/09 10:42:10;;;;;;;2.50;2.40;;;33.80;55.90;;;;;;5014963;28;20387;-66
2023/06/09 10:44:45;;;;;;;2.17;2.07;;;33.50;56.50;;;;;;5014532;28;20451;-65
2023/06/09 10:47:10;;;;;;;2.23;2.13;;;33.20;57.40;;;;;;5014875;28;20380;-66
2023/06/09 10:49:40;;;;;;;3.10;2.10;;;33.30;57.30;;;;;;4997213;28;20418;-65
2023/06/09 10:52:07;;;;;;;2.20;2.10;;;33.50;56.50;;;;;;5014671;28;20175;-67
2023/06/09 10:54:35;;;;;;;2.53;2.33;;;33.40;56.80;;;;;;5014231;28;20438;-67
2023/06/09 10:57:25;;;;;;;2.10;2.00;;;33.00;56.10;;;;;;5014717;28;20385;-67
2023/06/09 10:59:51;;;;;;;3.80;2.57;;;32.60;57.70;;;;;;5014717;28;20447;-67
2023/06/09 11:02:18;;;;;;;2.60;2.40;;;32.50;58.50;;;;;;5014612;28;20463;-67
2023/06/09 11:04:48;;;;;;;2.37;2.27;;;32.40;58.60;;;;;;5013908;28;20422;-67
2023/06/09 11:07:22;;;;;;;2.40;2.03;;;32.40;57.70;;;;;;5014210;28;20739;-65
2023/06/09 11:09:48;;;;;;;2.43;2.30;;;31.90;57.60;;;;;;5014402;28;20373;-66
2023/06/09 11:12:36;;;;;;;2.20;2.10;;;31.30;59.50;;;;;;4996870;28;20793;-65
2023/06/09 11:15:03;;;;;;;1.80;1.70;;;30.70;59.40;;;;;;5013910;28;20432;-66
2023/06/09 11:17:39;;;;;;;2.33;2.23;;;30.10;59.70;;;;;;5014139;28;20382;-66
2023/06/09 11:22:54;;;;;;;3.10;2.60;;;28.90;64.80;;;;;;5014234;28;20402;-65
2023/06/09 11:25:19;;;;;;;2.50;2.30;;;28.60;65.40;;;;;;5013775;28;20395;-66
2023/06/09 11:27:48;;;;;;;1.87;1.77;;;28.50;65.80;;;;;;5014250;28;20385;-67
2023/06/09 11:30:18;;;;;;;2.10;2.00;;;28.40;64.40;;;;;;4996338;28;20181;-67
2023/06/09 11:32:52;;;;;;;3.10;2.23;;;28.20;64.10;;;;;;5014087;28;20422;-66
2023/06/09 11:35:29;;;;;;;2.17;1.90;;;28.20;67.50;;;;;;5013744;28;20439;-66
2023/06/09 11:38:05;;;;;;;1.93;1.80;;;28.30;67.30;;;;;;5014046;28;20429;-66
2023/06/09 11:40:33;;;;;;;2.57;2.37;;;28.20;68.30;;;;;;5013818;28;20468;-66
2023/06/09 11:43:01;;;;;;;1.97;1.87;;;28.20;67.50;;;;;;5013855;28;20522;-66
2023/06/09 11:45:30;;;;;;;1.57;1.47;;;28.10;68.00;;;;;;5013717;28;20447;-66
2023/06/09 11:47:57;;;;;;;1.97;1.87;;;28.00;67.90;;;;;;5013701;28;20953;-66
2023/06/09 11:50:24;;;;;;;1.73;1.63;;;27.90;68.50;;;;;;5013868;28;20427;-66
2023/06/09 11:53:17;;;;;;;2.20;2.10;;;27.90;67.60;;;;;;5013078;28;20861;-66
2023/06/09 11:55:44;;;;;;;2.17;2.07;;;27.90;68.90;;;;;;5013703;28;20475;-66
2023/06/09 11:58:12;;;;;;;1.60;1.50;;;27.80;67.70;;;;;;5013475;28;20409;-66
2023/06/09 12:00:40;;;;;;;1.70;1.60;;;27.50;67.50;;;;;;5013554;28;20463;-66
2023/06/09 12:03:07;;;;;;;1.97;1.87;;;27.20;69.40;;;;;;5013208;28;20389;-66
2023/06/09 12:05:33;;;;;;;2.07;1.97;;;27.00;70.40;;;;;;5013230;28;20535;-65
2023/06/09 12:08:00;;;;;;;2.20;2.10;;;27.00;71.80;;;;;;5013090;28;20410;-65
2023/06/09 12:10:27;;;;;;;1.83;1.70;;;27.10;70.40;;;;;;5011995;28;20529;-64
2023/06/09 12:12:57;;;;;;;1.97;1.87;;;27.20;69.10;;;;;;5011860;28;20404;-66
2023/06/09 12:15:25;;;;;;;1.83;1.73;;;27.30;70.40;;;;;;5012524;28;20434;-66
2023/06/09 12:17:57;;;;;;;2.20;2.10;;;27.50;69.90;;;;;;5010537;28;20418;-64
2023/06/09 12:20:22;;;;;;;2.10;2.00;;;27.60;70.60;;;;;;5012692;28;20454;-65
2023/06/09 12:22:55;;;;;;;1.87;1.77;;;27.70;68.50;;;;;;5013135;28;20407;-67
2023/06/09 12:25:25;;;;;;;2.07;1.97;;;27.80;67.30;;;;;;5007185;28;20286;-65
2023/06/09 12:27:52;;;;;;;2.00;1.90;;;27.80;67.00;;;;;;4993450;28;20412;-65
2023/06/09 12:30:38;;;;;;;1.90;1.80;;;27.70;67.60;;;;;;5012869;28;20496;-66
2023/06/09 12:33:13;;;;;;;1.80;1.67;;;27.70;66.80;;;;;;5013275;28;20424;-66
2023/06/09 12:35:44;;;;;;;2.27;2.10;;;27.70;67.30;;;;;;5007224;28;20944;-65
2023/06/09 12:38:13;;;;;;;2.20;2.00;;;27.70;67.00;;;;;;5012522;28;20433;-67
2023/06/09 12:40:54;;;;;;;2.43;2.20;;;27.80;66.30;;;;;;5012825;28;20435;-67
2023/06/09 12:43:23;;;;;;;1.90;1.80;;;27.70;66.40;;;;;;5012610;28;21211;-67
2023/06/09 12:45:52;;;;;;;2.57;2.10;;;27.70;67.50;;;;;;5012775;28;20857;-66
2023/06/09 12:48:18;;;;;;;1.93;1.83;;;27.80;66.50;;;;;;5013221;28;20744;-67
2023/06/09 12:50:44;;;;;;;1.93;1.80;;;27.90;67.30;;;;;;5013218;28;20380;-67
2023/06/09 12:53:11;;;;;;;2.30;2.10;;;27.90;66.40;;;;;;5012517;28;20182;-67
2023/06/09 12:55:37;;;;;;;1.90;1.80;;;28.00;66.60;;;;;;5012676;28;20510;-66
2023/06/09 12:58:04;;;;;;;1.63;1.53;;;28.00;65.40;;;;;;4995282;28;20496;-66
2023/06/09 13:00:30;;;;;;;2.13;2.03;;;27.80;66.20;;;;;;4994660;28;20524;-65
2023/06/09 13:02:59;;;;;;;2.37;2.17;;;27.80;67.00;;;;;;5012948;28;20491;-66
2023/06/09 13:05:30;;;;;;;2.57;2.03;;;27.80;65.40;;;;;;4999346;28;20605;-66
2023/06/09 13:08:00;;;;;;;2.13;1.93;;;27.70;66.40;;;;;;4996994;28;20404;-67
2023/06/09 13:10:26;;;;;;;1.73;1.63;;;27.60;67.00;;;;;;4996898;28;20451;-66
2023/06/09 13:12:52;;;;;;;1.57;1.47;;;27.50;66.50;;;;;;4996640;28;20418;-66
2023/06/09 13:15:24;;;;;;;2.50;2.30;;;27.30;66.60;;;;;;5014356;28;21067;-66
2023/06/09 13:17:50;;;;;;;1.70;1.60;;;27.10;67.80;;;;;;5016338;28;20739;-65
2023/06/09 13:20:19;;;;;;;2.20;2.00;;;27.10;67.70;;;;;;5015401;28;20445;-67
2023/06/09 13:22:45;;;;;;;1.80;1.70;;;27.20;68.30;;;;;;5015829;28;20422;-67
2023/06/09 13:25:11;;;;;;;2.20;2.00;;;27.30;67.10;;;;;;4998091;28;20401;-66
2023/06/09 13:27:44;;;;;;;2.00;1.90;;;27.30;66.20;;;;;;5008648;28;20410;-67
2023/06/09 13:30:11;;;;;;;1.97;1.87;;;27.30;67.00;;;;;;5009736;28;20911;-65
2023/06/09 13:32:37;;;;;;;2.10;1.90;;;27.40;65.00;;;;;;5015901;28;20430;-65
2023/06/09 13:35:03;;;;;;;2.13;2.00;;;27.50;66.00;;;;;;5013659;28;20401;-66
2023/06/09 13:37:29;;;;;;;1.93;1.73;;;27.60;65.50;;;;;;5013314;28;20392;-66
2023/06/09 13:39:55;;;;;;;2.50;2.00;;;27.60;65.50;;;;;;5015927;28;20460;-66
2023/06/09 13:42:20;;;;;;;1.80;1.70;;;27.80;65.10;;;;;;5016027;28;20226;-67
2023/06/09 13:44:46;;;;;;;1.67;1.57;;;27.80;63.30;;;;;;5014660;28;20282;-66
2023/06/09 13:47:11;;;;;;;1.77;1.67;;;27.70;63.70;;;;;;5016050;28;20214;-66
2023/06/09 13:49:37;;;;;;;1.90;1.80;;;27.70;65.80;;;;;;4993302;28;20274;-66
2023/06/09 13:52:03;;;;;;;1.73;1.63;;;27.60;65.90;;;;;;5015711;28;20580;-67
2023/06/09 13:54:29;;;;;;;2.00;1.90;;;27.60;65.80;;;;;;5015137;28;20449;-66
2023/06/09 13:56:55;;;;;;;1.80;1.70;;;27.60;65.40;;;;;;5014311;28;20422;-65
2023/06/09 13:59:21;;;;;;;1.83;1.73;;;27.70;65.90;;;;;;5004549;28;20198;-64
2023/06/09 14:01:46;;;;;;;2.10;2.00;;;27.70;64.40;;;;;;5015888;28;20580;-64
2023/06/09 14:04:13;;;;;;;2.00;1.90;;;27.70;63.30;;;;;;5012044;28;20431;-65
2023/06/09 14:06:40;;;;;;;1.87;1.77;;;27.70;64.50;;;;;;4993478;28;20431;-65
2023/06/09 14:09:09;;;;;;;2.30;2.10;;;27.70;64.10;;;;;;4999481;28;20422;-64
2023/06/09 14:11:35;;;;;;;1.97;1.87;;;27.80;63.10;;;;;;4999261;28;20406;-64
2023/06/09 14:14:02;;;;;;;2.33;2.13;;;27.70;62.10;;;;;;5013890;28;20428;-64
2023/06/09 14:16:27;;;;;;;2.30;2.10;;;27.50;62.90;;;;;;5007001;28;20732;-67
2023/06/09 14:18:53;;;;;;;1.30;1.20;;;27.30;62.80;;;;;;4984434;28;20477;-63
2023/06/09 14:21:19;;;;;;;2.03;1.70;;;27.20;63.00;;;;;;4995734;28;20243;-64
2023/06/09 14:23:45;;;;;;;1.83;1.73;;;27.00;62.90;;;;;;5014720;28;20194;-65
2023/06/09 14:26:12;;;;;;;2.03;1.93;;;27.00;64.50;;;;;;5015042;28;20427;-65
2023/06/09 14:28:38;;;;;;;2.00;1.90;;;27.00;63.60;;;;;;5015036;28;20456;-64
2023/06/09 14:31:04;;;;;;;2.90;2.70;;;27.10;64.40;;;;;;5015349;28;20406;-65
2023/06/09 14:33:30;;;;;;;2.60;2.40;;;27.20;63.20;;;;;;5014561;28;20839;-66
2023/06/09 14:35:55;;;;;;;2.67;2.47;;;27.30;63.70;;;;;;5014610;28;20199;-66
2023/06/09 14:38:21;;;;;;;3.87;2.23;;;27.30;63.30;;;;;;5014952;28;20186;-66
2023/06/09 14:40:46;;;;;;;2.33;2.17;;;27.40;63.30;;;;;;5013514;28;20198;-66
2023/06/09 14:43:12;;;;;;;2.30;2.10;;;27.40;62.90;;;;;;5014113;28;20250;-65
2023/06/09 14:45:37;;;;;;;2.40;2.20;;;27.40;62.80;;;;;;4998143;28;20282;-66
2023/06/09 14:48:07;;;;;;;2.10;2.00;;;27.40;61.30;;;;;;5014956;28;20307;-66
2023/06/09 14:50:36;;;;;;;2.30;2.20;;;27.40;60.50;;;;;;5015464;28;20933;-67
2023/06/09 14:53:02;;;;;;;2.93;2.00;;;27.30;60.90;;;;;;5015978;28;20404;-66
2023/06/09 14:55:36;;;;;;;2.27;2.17;;;27.20;61.30;;;;;;5017001;28;20434;-66
2023/06/09 14:58:03;;;;;;;1.93;1.83;;;27.20;62.80;;;;;;5015931;28;20477;-65
2023/06/09 15:00:31;;;;;;;2.47;2.33;;;27.10;62.70;;;;;;5014463;28;20773;-68
2023/06/09 15:02:58;;;;;;;2.37;2.20;;;26.90;61.20;;;;;;4995372;28;20602;-64
2023/06/09 15:05:26;;;;;;;1.87;1.77;;;26.90;60.80;;;;;;5003263;28;20493;-66
2023/06/09 15:07:57;;;;;;;2.33;2.23;;;26.80;61.10;;;;;;5014460;28;20414;-64
2023/06/09 15:10:23;;;;;;;1.70;1.60;;;26.80;61.50;;;;;;5001347;28;20866;-64
2023/06/09 15:12:49;;;;;;;2.47;2.27;;;26.80;61.20;;;;;;5014290;28;20803;-64
2023/06/09 15:15:15;;;;;;;3.07;2.87;;;26.90;62.10;;;;;;5014716;28;20512;-63
2023/06/09 15:17:41;;;;;;;2.50;2.30;;;27.00;61.60;;;;;;5015469;28;20847;-67
2023/06/09 15:20:07;;;;;;;2.20;2.10;;;27.10;62.40;;;;;;5014353;28;20252;-66
2023/06/09 15:22:37;;;;;;;2.43;2.33;;;27.20;62.00;;;;;;5014357;28;20225;-66
2023/06/09 15:25:05;;;;;;;2.27;2.17;;;27.30;61.80;;;;;;4996226;28;20500;-65
2023/06/09 15:27:31;;;;;;;2.23;2.13;;;27.20;61.80;;;;;;5008886;28;20444;-65
2023/06/09 15:29:56;;;;;;;2.20;2.07;;;27.20;62.20;;;;;;5013402;28;20462;-65
2023/06/09 15:32:22;;;;;;;3.97;2.70;;;27.10;62.70;;;;;;5014128;28;20687;-64
2023/06/09 15:34:48;;;;;;;2.50;2.30;;;27.20;63.10;;;;;;5012740;28;20297;-67
2023/06/09 15:37:14;;;;;;;3.47;2.40;;;27.20;62.30;;;;;;5012698;28;20261;-67
2023/06/09 15:39:40;;;;;;;2.40;2.30;;;27.20;62.40;;;;;;4997379;28;20195;-66
2023/06/09 15:42:07;;;;;;;2.47;2.27;;;27.20;61.80;;;;;;4995633;28;20469;-66
2023/06/09 15:44:33;;;;;;;2.40;2.20;;;27.20;61.20;;;;;;5011113;28;20203;-62
2023/06/09 15:46:58;;;;;;;3.03;2.53;;;27.20;61.20;;;;;;5011927;28;20413;-65
2023/06/09 15:49:24;;;;;;;2.43;2.30;;;27.20;61.10;;;;;;4998787;28;20176;-65
2023/06/09 15:51:49;;;;;;;2.70;2.50;;;27.10;61.80;;;;;;4994193;28;20179;-65
2023/06/09 15:54:15;;;;;;;3.00;2.77;;;27.10;61.40;;;;;;4976298;28;20601;-66
2023/06/09 15:56:41;;;;;;;2.77;2.40;;;27.10;59.70;;;;;;4994189;28;20717;-63
2023/06/09 15:59:06;;;;;;;2.80;2.00;;;27.10;59.50;;;;;;4994553;28;20172;-65
2023/06/09 16:01:32;;;;;;;2.67;2.47;;;27.10;59.30;;;;;;5008409;28;20318;-65
2023/06/09 16:03:57;;;;;;;2.93;2.57;;;27.00;58.60;;;;;;5013305;28;20217;-64
2023/06/09 16:06:23;;;;;;;3.00;2.80;;;27.00;59.10;;;;;;5013510;28;20191;-65
2023/06/09 16:08:48;;;;;;;2.40;2.30;;;27.00;59.00;;;;;;5013321;28;20191;-66
2023/06/09 16:11:14;;;;;;;2.93;2.50;;;27.00;59.50;;;;;;5012917;28;20213;-66
2023/06/09 16:13:40;;;;;;;2.90;2.70;;;27.00;59.50;;;;;;5012694;28;20198;-65
2023/06/09 16:16:06;;;;;;;2.87;2.63;;;27.00;59.00;;;;;;5012824;28;20199;-65
2023/06/09 16:18:32;;;;;;;2.70;2.40;;;27.10;59.40;;;;;;5011421;28;20815;-67
2023/06/09 16:20:58;;;;;;;6.80;2.90;;;27.00;59.30;;;;;;5007296;28;20454;-65
2023/06/09 16:23:23;;;;;;;2.80;2.60;;;27.00;59.60;;;;;;4990827;28;20170;-66
2023/06/09 16:25:49;;;;;;;2.77;2.50;;;27.00;59.90;;;;;;5012811;28;20692;-65
2023/06/09 16:28:14;;;;;;;3.10;2.90;;;27.10;60.40;;;;;;5008733;28;20190;-67
2023/06/09 16:30:40;;;;;;;3.10;2.83;;;27.10;59.40;;;;;;4995203;28;20178;-67
2023/06/09 16:33:06;;;;;;;2.63;2.43;;;27.10;58.60;;;;;;5012931;28;20171;-67
2023/06/09 16:35:32;;;;;;;2.83;2.30;;;27.10;58.70;;;;;;5012927;28;20570;-64
2023/06/09 16:37:58;;;;;;;3.03;2.70;;;27.10;58.60;;;;;;5011672;28;20425;-66
2023/06/09 16:40:26;;;;;;;2.80;2.60;;;27.10;58.60;;;;;;5016154;28;20720;-65
2023/06/09 16:42:57;;;;;;;2.90;2.70;;;27.10;59.00;;;;;;5016953;28;20657;-65
2023/06/09 16:45:23;;;;;;;3.50;3.23;;;27.00;59.00;;;;;;5017077;28;20421;-67
2023/06/09 16:47:49;;;;;;;2.50;2.40;;;27.00;59.20;;;;;;5017179;28;20919;-66
2023/06/09 16:50:15;;;;;;;2.80;2.60;;;27.00;58.80;;;;;;5017181;28;20253;-66
2023/06/09 16:52:40;;;;;;;3.07;2.83;;;27.00;58.90;;;;;;5017079;28;20422;-67
2023/06/09 16:55:06;;;;;;;3.00;2.80;;;27.00;58.80;;;;;;5016372;28;20763;-68